createdAt,value
2019-01-06T15:38:24.822Z,4.80
2019-01-06T15:41:31.017Z,4.37
2019-01-06T15:44:28.218Z,4.47
2019-01-06T15:47:34.567Z,4.30
2019-01-06T15:50:37.801Z,4.40
2019-01-06T15:53:29.435Z,4.80
2019-01-06T15:56:23.510Z,4.70
2019-01-06T15:59:20.403Z,4.67
2019-01-06T16:02:08.470Z,4.40
2019-01-06T16:05:01.469Z,4.73
2019-01-06T16:08:10.997Z,4.77
2019-01-06T16:11:17.291Z,5.10
2019-01-06T16:14:08.229Z,4.50
2019-01-06T16:17:01.532Z,4.40
2019-01-06T16:19:52.563Z,4.40
2019-01-06T16:22:44.476Z,5.67
2019-01-06T16:25:57.433Z,6.47
2019-01-06T16:28:38.479Z,5.47
2019-01-06T16:31:25.398Z,4.77
2019-01-06T16:34:16.391Z,4.70
2019-01-06T16:37:16.305Z,4.63
2019-01-06T16:40:19.481Z,4.30
2019-01-06T16:43:10.944Z,4.40
2019-01-06T16:45:57.654Z,3.70
2019-01-06T16:48:57.770Z,4.30
2019-01-06T16:51:47.842Z,4.40
2019-01-06T16:54:48.017Z,4.00
2019-01-06T16:57:48.132Z,4.20
2019-01-06T17:00:35.230Z,5.77
2019-01-06T17:03:21.846Z,7.30
2019-01-06T17:06:14.158Z,6.33
2019-01-06T17:09:07.839Z,6.73
2019-01-06T17:11:54.442Z,7.83
2019-01-06T17:14:41.238Z,7.20
2019-01-06T17:17:41.406Z,7.00
2019-01-06T17:20:32.082Z,8.47
2019-01-06T17:23:23.442Z,8.00
2019-01-06T17:26:11.507Z,9.90
2019-01-06T17:28:57.862Z,11.40
2019-01-06T17:31:42.020Z,11.60
2019-01-06T17:34:39.078Z,128.37
2019-01-06T17:37:38.780Z,125.47
2019-01-06T17:40:26.871Z,109.67
2019-01-06T17:43:16.259Z,108.93
2019-01-06T17:46:07.098Z,189.33
2019-01-06T17:49:00.734Z,234.27
2019-01-06T17:52:06.773Z,207.50
2019-01-06T17:54:54.830Z,172.47
2019-01-06T17:57:44.490Z,181.60
2019-01-06T18:00:31.302Z,163.43
2019-01-06T18:03:27.766Z,167.73
2019-01-06T18:06:14.798Z,143.27
2019-01-06T18:09:15.411Z,213.67
2019-01-06T18:11:59.456Z,462.70
2019-01-06T18:14:53.533Z,448.70
2019-01-06T18:17:39.954Z,399.07
2019-01-06T18:20:26.381Z,383.23
2019-01-06T18:23:20.745Z,367.60
2019-01-06T18:26:11.453Z,338.03
2019-01-06T18:28:58.113Z,306.87
2019-01-06T18:31:44.861Z,335.07
2019-01-06T18:34:34.214Z,454.17
2019-01-06T18:37:22.522Z,489.20
2019-01-06T18:40:25.585Z,477.27
